sensor_id;sensor_type;location;lat;lon;timestamp;P1;durP1;ratioP1;P2;durP2;ratioP2
59504;SDS011;45321;53.200;5.814;2023-03-01T00:01:36;23.08;;;17.55;;
59504;SDS011;45321;53.200;5.814;2023-03-01T00:04:01;25.40;;;18.25;;
59504;SDS011;45321;53.200;5.814;2023-03-01T00:06:27;23.83;;;18.10;;
59504;SDS011;45321;53.200;5.814;2023-03-01T00:08:53;23.35;;;17.58;;
59504;SDS011;45321;53.200;5.814;2023-03-01T00:11:21;24.05;;;17.85;;
59504;SDS011;45321;53.200;5.814;2023-03-01T00:13:49;23.33;;;17.48;;
59504;SDS011;45321;53.200;5.814;2023-03-01T00:16:18;22.77;;;18.10;;
59504;SDS011;45321;53.200;5.814;2023-03-01T00:18:49;23.17;;;18.20;;
59504;SDS011;45321;53.200;5.814;2023-03-01T00:21:16;23.02;;;18.10;;
59504;SDS011;45321;53.200;5.814;2023-03-01T00:23:42;24.42;;;17.85;;
59504;SDS011;45321;53.200;5.814;2023-03-01T00:26:09;23.67;;;17.20;;
59504;SDS011;45321;53.200;5.814;2023-03-01T00:28:37;22.85;;;18.05;;
59504;SDS011;45321;53.200;5.814;2023-03-01T00:31:04;23.65;;;17.65;;
59504;SDS011;45321;53.200;5.814;2023-03-01T00:33:52;25.50;;;18.23;;
59504;SDS011;45321;53.200;5.814;2023-03-01T00:36:22;25.05;;;18.73;;
59504;SDS011;45321;53.200;5.814;2023-03-01T00:38:49;24.67;;;18.52;;
59504;SDS011;45321;53.200;5.814;2023-03-01T00:41:16;25.65;;;17.75;;
59504;SDS011;45321;53.200;5.814;2023-03-01T00:43:43;24.85;;;19.10;;
59504;SDS011;45321;53.200;5.814;2023-03-01T00:46:14;25.33;;;17.85;;
59504;SDS011;45321;53.200;5.814;2023-03-01T00:48:41;24.20;;;18.42;;
59504;SDS011;45321;53.200;5.814;2023-03-01T00:51:14;22.98;;;18.52;;
59504;SDS011;45321;53.200;5.814;2023-03-01T00:53:41;23.27;;;16.88;;
59504;SDS011;45321;53.200;5.814;2023-03-01T00:56:08;23.33;;;16.92;;
59504;SDS011;45321;53.200;5.814;2023-03-01T00:58:35;22.35;;;17.02;;
59504;SDS011;45321;53.200;5.814;2023-03-01T01:01:06;26.33;;;18.70;;
59504;SDS011;45321;53.200;5.814;2023-03-01T01:03:42;22.20;;;17.40;;
59504;SDS011;45321;53.200;5.814;2023-03-01T01:06:14;21.00;;;16.83;;
59504;SDS011;45321;53.200;5.814;2023-03-01T01:08:40;20.80;;;17.77;;
59504;SDS011;45321;53.200;5.814;2023-03-01T01:11:08;28.85;;;19.33;;
59504;SDS011;45321;53.200;5.814;2023-03-01T01:13:34;24.67;;;18.77;;
59504;SDS011;45321;53.200;5.814;2023-03-01T01:16:01;22.20;;;17.17;;
59504;SDS011;45321;53.200;5.814;2023-03-01T01:18:27;22.48;;;16.65;;
59504;SDS011;45321;53.200;5.814;2023-03-01T01:20:52;26.00;;;18.80;;
59504;SDS011;45321;53.200;5.814;2023-03-01T01:23:18;28.35;;;21.25;;
59504;SDS011;45321;53.200;5.814;2023-03-01T01:25:44;29.02;;;21.52;;
59504;SDS011;45321;53.200;5.814;2023-03-01T01:28:09;30.58;;;22.23;;
59504;SDS011;45321;53.200;5.814;2023-03-01T01:30:35;24.70;;;19.17;;
59504;SDS011;45321;53.200;5.814;2023-03-01T01:33:01;25.13;;;18.17;;
59504;SDS011;45321;53.200;5.814;2023-03-01T01:35:27;22.23;;;17.48;;
59504;SDS011;45321;53.200;5.814;2023-03-01T01:37:52;18.67;;;15.00;;
59504;SDS011;45321;53.200;5.814;2023-03-01T01:40:18;17.20;;;14.05;;
59504;SDS011;45321;53.200;5.814;2023-03-01T01:42:44;17.70;;;14.25;;
59504;SDS011;45321;53.200;5.814;2023-03-01T01:48:05;17.60;;;13.80;;
59504;SDS011;45321;53.200;5.814;2023-03-01T01:50:35;17.40;;;13.70;;
59504;SDS011;45321;53.200;5.814;2023-03-01T01:53:07;20.17;;;15.15;;
59504;SDS011;45321;53.200;5.814;2023-03-01T01:55:39;18.40;;;14.32;;
59504;SDS011;45321;53.200;5.814;2023-03-01T01:58:11;17.60;;;13.70;;
59504;SDS011;45321;53.200;5.814;2023-03-01T02:00:40;18.35;;;14.95;;
59504;SDS011;45321;53.200;5.814;2023-03-01T02:03:17;17.48;;;15.18;;
59504;SDS011;45321;53.200;5.814;2023-03-01T02:08:29;18.77;;;15.02;;
59504;SDS011;45321;53.200;5.814;2023-03-01T02:10:57;19.27;;;15.60;;
59504;SDS011;45321;53.200;5.814;2023-03-01T02:13:25;19.00;;;14.80;;
59504;SDS011;45321;53.200;5.814;2023-03-01T02:15:51;21.10;;;15.13;;
59504;SDS011;45321;53.200;5.814;2023-03-01T02:18:18;20.73;;;15.20;;
59504;SDS011;45321;53.200;5.814;2023-03-01T02:20:58;20.92;;;14.98;;
59504;SDS011;45321;53.200;5.814;2023-03-01T02:23:31;18.15;;;14.77;;
59504;SDS011;45321;53.200;5.814;2023-03-01T02:26:03;19.20;;;15.13;;
59504;SDS011;45321;53.200;5.814;2023-03-01T02:28:39;22.52;;;16.98;;
59504;SDS011;45321;53.200;5.814;2023-03-01T02:31:07;25.88;;;17.45;;
59504;SDS011;45321;53.200;5.814;2023-03-01T02:33:53;21.75;;;16.30;;
59504;SDS011;45321;53.200;5.814;2023-03-01T02:36:21;24.75;;;17.10;;
59504;SDS011;45321;53.200;5.814;2023-03-01T02:38:51;35.03;;;17.38;;
59504;SDS011;45321;53.200;5.814;2023-03-01T02:41:20;30.60;;;18.38;;
59504;SDS011;45321;53.200;5.814;2023-03-01T02:43:46;70.28;;;17.67;;
59504;SDS011;45321;53.200;5.814;2023-03-01T02:46:15;130.10;;;17.17;;
59504;SDS011;45321;53.200;5.814;2023-03-01T02:48:45;112.22;;;17.80;;
59504;SDS011;45321;53.200;5.814;2023-03-01T02:51:24;117.50;;;17.27;;
59504;SDS011;45321;53.200;5.814;2023-03-01T02:54:22;160.27;;;17.25;;
59504;SDS011;45321;53.200;5.814;2023-03-01T02:56:50;92.95;;;16.65;;
59504;SDS011;45321;53.200;5.814;2023-03-01T02:59:18;78.68;;;15.40;;
59504;SDS011;45321;53.200;5.814;2023-03-01T03:01:46;39.28;;;13.30;;
59504;SDS011;45321;53.200;5.814;2023-03-01T03:04:17;26.48;;;12.13;;
59504;SDS011;45321;53.200;5.814;2023-03-01T03:06:44;15.73;;;13.18;;
59504;SDS011;45321;53.200;5.814;2023-03-01T03:09:11;16.25;;;13.48;;
59504;SDS011;45321;53.200;5.814;2023-03-01T03:11:37;19.77;;;15.30;;
59504;SDS011;45321;53.200;5.814;2023-03-01T03:14:05;18.30;;;14.93;;
59504;SDS011;45321;53.200;5.814;2023-03-01T03:16:39;27.95;;;16.20;;
59504;SDS011;45321;53.200;5.814;2023-03-01T03:19:05;48.83;;;16.08;;
59504;SDS011;45321;53.200;5.814;2023-03-01T03:21:32;33.08;;;15.63;;
59504;SDS011;45321;53.200;5.814;2023-03-01T03:23:58;106.25;;;14.90;;
59504;SDS011;45321;53.200;5.814;2023-03-01T03:26:24;73.25;;;15.88;;
59504;SDS011;45321;53.200;5.814;2023-03-01T03:28:50;80.95;;;15.38;;
59504;SDS011;45321;53.200;5.814;2023-03-01T03:31:15;93.25;;;16.13;;
59504;SDS011;45321;53.200;5.814;2023-03-01T03:33:41;38.53;;;14.73;;
59504;SDS011;45321;53.200;5.814;2023-03-01T03:36:07;81.47;;;15.02;;
59504;SDS011;45321;53.200;5.814;2023-03-01T03:38:38;72.07;;;15.88;;
59504;SDS011;45321;53.200;5.814;2023-03-01T03:41:05;67.50;;;14.23;;
59504;SDS011;45321;53.200;5.814;2023-03-01T03:43:34;56.72;;;14.70;;
59504;SDS011;45321;53.200;5.814;2023-03-01T03:46:01;62.70;;;14.52;;
59504;SDS011;45321;53.200;5.814;2023-03-01T03:48:35;50.50;;;14.63;;
59504;SDS011;45321;53.200;5.814;2023-03-01T03:51:03;32.03;;;12.73;;
59504;SDS011;45321;53.200;5.814;2023-03-01T03:53:32;36.00;;;13.18;;
59504;SDS011;45321;53.200;5.814;2023-03-01T03:55:58;31.10;;;13.48;;
59504;SDS011;45321;53.200;5.814;2023-03-01T03:58:24;44.30;;;12.57;;
59504;SDS011;45321;53.200;5.814;2023-03-01T04:00:55;29.10;;;13.05;;
59504;SDS011;45321;53.200;5.814;2023-03-01T04:03:22;34.00;;;13.25;;
59504;SDS011;45321;53.200;5.814;2023-03-01T04:05:49;21.50;;;13.10;;
59504;SDS011;45321;53.200;5.814;2023-03-01T04:08:16;18.48;;;13.60;;
59504;SDS011;45321;53.200;5.814;2023-03-01T04:10:45;22.63;;;12.00;;
59504;SDS011;45321;53.200;5.814;2023-03-01T04:13:14;25.10;;;13.13;;
59504;SDS011;45321;53.200;5.814;2023-03-01T04:15:41;18.70;;;11.80;;
59504;SDS011;45321;53.200;5.814;2023-03-01T04:18:14;15.45;;;12.32;;
59504;SDS011;45321;53.200;5.814;2023-03-01T04:20:41;14.95;;;11.27;;
59504;SDS011;45321;53.200;5.814;2023-03-01T04:23:08;14.77;;;11.30;;
59504;SDS011;45321;53.200;5.814;2023-03-01T04:25:57;13.07;;;9.73;;
59504;SDS011;45321;53.200;5.814;2023-03-01T04:28:31;24.55;;;9.07;;
59504;SDS011;45321;53.200;5.814;2023-03-01T04:33:46;17.40;;;12.98;;
59504;SDS011;45321;53.200;5.814;2023-03-01T04:36:14;16.25;;;12.57;;
59504;SDS011;45321;53.200;5.814;2023-03-01T04:38:41;14.93;;;12.50;;
59504;SDS011;45321;53.200;5.814;2023-03-01T04:41:08;17.55;;;13.35;;
59504;SDS011;45321;53.200;5.814;2023-03-01T04:43:36;17.63;;;13.15;;
59504;SDS011;45321;53.200;5.814;2023-03-01T04:46:06;15.93;;;12.20;;
59504;SDS011;45321;53.200;5.814;2023-03-01T04:48:39;13.77;;;11.00;;
59504;SDS011;45321;53.200;5.814;2023-03-01T04:51:06;11.90;;;10.63;;
59504;SDS011;45321;53.200;5.814;2023-03-01T04:53:33;17.75;;;11.23;;
59504;SDS011;45321;53.200;5.814;2023-03-01T04:56:01;13.13;;;11.05;;
59504;SDS011;45321;53.200;5.814;2023-03-01T04:58:27;15.25;;;11.60;;
59504;SDS011;45321;53.200;5.814;2023-03-01T05:00:53;15.10;;;11.93;;
59504;SDS011;45321;53.200;5.814;2023-03-01T05:03:20;16.42;;;11.82;;
59504;SDS011;45321;53.200;5.814;2023-03-01T05:05:46;20.48;;;11.40;;
59504;SDS011;45321;53.200;5.814;2023-03-01T05:08:14;13.65;;;11.38;;
59504;SDS011;45321;53.200;5.814;2023-03-01T05:11:01;13.48;;;10.77;;
59504;SDS011;45321;53.200;5.814;2023-03-01T05:13:26;16.38;;;11.10;;
59504;SDS011;45321;53.200;5.814;2023-03-01T05:15:55;15.48;;;11.77;;
59504;SDS011;45321;53.200;5.814;2023-03-01T05:18:22;17.10;;;12.35;;
59504;SDS011;45321;53.200;5.814;2023-03-01T05:20:53;14.57;;;11.77;;
59504;SDS011;45321;53.200;5.814;2023-03-01T05:23:23;13.40;;;11.73;;
59504;SDS011;45321;53.200;5.814;2023-03-01T05:25:50;14.85;;;11.80;;
59504;SDS011;45321;53.200;5.814;2023-03-01T05:28:17;14.20;;;11.30;;
59504;SDS011;45321;53.200;5.814;2023-03-01T05:30:44;14.50;;;11.77;;
59504;SDS011;45321;53.200;5.814;2023-03-01T05:33:10;15.73;;;11.68;;
59504;SDS011;45321;53.200;5.814;2023-03-01T05:35:40;14.75;;;11.55;;
59504;SDS011;45321;53.200;5.814;2023-03-01T05:38:07;12.95;;;10.57;;
59504;SDS011;45321;53.200;5.814;2023-03-01T05:40:33;15.25;;;11.63;;
59504;SDS011;45321;53.200;5.814;2023-03-01T05:42:59;14.48;;;11.48;;
59504;SDS011;45321;53.200;5.814;2023-03-01T05:45:26;13.70;;;11.57;;
59504;SDS011;45321;53.200;5.814;2023-03-01T05:47:52;13.48;;;10.57;;
59504;SDS011;45321;53.200;5.814;2023-03-01T05:50:23;12.90;;;10.55;;
59504;SDS011;45321;53.200;5.814;2023-03-01T05:52:54;13.75;;;10.40;;
59504;SDS011;45321;53.200;5.814;2023-03-01T05:55:26;12.93;;;10.68;;
59504;SDS011;45321;53.200;5.814;2023-03-01T05:57:53;12.05;;;10.48;;
59504;SDS011;45321;53.200;5.814;2023-03-01T06:00:19;13.25;;;10.43;;
59504;SDS011;45321;53.200;5.814;2023-03-01T06:02:47;12.73;;;9.57;;
59504;SDS011;45321;53.200;5.814;2023-03-01T06:05:14;12.75;;;10.13;;
59504;SDS011;45321;53.200;5.814;2023-03-01T06:07:40;13.73;;;11.23;;
59504;SDS011;45321;53.200;5.814;2023-03-01T06:10:06;11.68;;;9.98;;
59504;SDS011;45321;53.200;5.814;2023-03-01T06:12:34;14.23;;;11.15;;
59504;SDS011;45321;53.200;5.814;2023-03-01T06:15:01;14.13;;;11.55;;
59504;SDS011;45321;53.200;5.814;2023-03-01T06:17:29;16.90;;;13.15;;
59504;SDS011;45321;53.200;5.814;2023-03-01T06:19:56;15.90;;;13.10;;
59504;SDS011;45321;53.200;5.814;2023-03-01T06:22:22;19.10;;;13.52;;
59504;SDS011;45321;53.200;5.814;2023-03-01T06:24:47;17.45;;;13.15;;
59504;SDS011;45321;53.200;5.814;2023-03-01T06:27:13;17.10;;;13.75;;
59504;SDS011;45321;53.200;5.814;2023-03-01T06:29:39;19.63;;;13.93;;
59504;SDS011;45321;53.200;5.814;2023-03-01T06:32:04;17.77;;;13.63;;
59504;SDS011;45321;53.200;5.814;2023-03-01T06:34:30;16.33;;;12.27;;
59504;SDS011;45321;53.200;5.814;2023-03-01T06:36:57;15.98;;;12.50;;
59504;SDS011;45321;53.200;5.814;2023-03-01T06:39:23;14.60;;;12.00;;
59504;SDS011;45321;53.200;5.814;2023-03-01T06:41:48;16.98;;;11.88;;
59504;SDS011;45321;53.200;5.814;2023-03-01T06:44:14;16.08;;;11.82;;
59504;SDS011;45321;53.200;5.814;2023-03-01T06:46:40;15.15;;;11.63;;
59504;SDS011;45321;53.200;5.814;2023-03-01T06:49:06;14.88;;;11.57;;
59504;SDS011;45321;53.200;5.814;2023-03-01T06:51:34;13.73;;;10.43;;
59504;SDS011;45321;53.200;5.814;2023-03-01T06:54:02;13.68;;;10.25;;
59504;SDS011;45321;53.200;5.814;2023-03-01T06:56:31;14.93;;;10.90;;
59504;SDS011;45321;53.200;5.814;2023-03-01T06:58:57;13.88;;;11.00;;
59504;SDS011;45321;53.200;5.814;2023-03-01T07:01:23;12.25;;;10.45;;
59504;SDS011;45321;53.200;5.814;2023-03-01T07:03:48;11.85;;;10.27;;
59504;SDS011;45321;53.200;5.814;2023-03-01T07:06:14;10.73;;;9.32;;
59504;SDS011;45321;53.200;5.814;2023-03-01T07:08:40;9.77;;;8.35;;
59504;SDS011;45321;53.200;5.814;2023-03-01T07:11:09;11.07;;;8.90;;
59504;SDS011;45321;53.200;5.814;2023-03-01T07:13:34;9.45;;;8.55;;
59504;SDS011;45321;53.200;5.814;2023-03-01T07:16:00;9.85;;;8.73;;
59504;SDS011;45321;53.200;5.814;2023-03-01T07:18:26;11.45;;;10.23;;
59504;SDS011;45321;53.200;5.814;2023-03-01T07:20:52;11.27;;;9.85;;
59504;SDS011;45321;53.200;5.814;2023-03-01T07:23:18;11.88;;;10.55;;
59504;SDS011;45321;53.200;5.814;2023-03-01T07:25:43;16.13;;;13.63;;
59504;SDS011;45321;53.200;5.814;2023-03-01T07:28:09;18.08;;;16.13;;
59504;SDS011;45321;53.200;5.814;2023-03-01T07:30:35;19.73;;;15.85;;
59504;SDS011;45321;53.200;5.814;2023-03-01T07:33:01;19.80;;;15.32;;
59504;SDS011;45321;53.200;5.814;2023-03-01T07:35:27;25.35;;;17.90;;
59504;SDS011;45321;53.200;5.814;2023-03-01T07:37:53;30.25;;;20.17;;
59504;SDS011;45321;53.200;5.814;2023-03-01T07:40:19;24.35;;;18.88;;
59504;SDS011;45321;53.200;5.814;2023-03-01T07:42:45;23.52;;;17.58;;
59504;SDS011;45321;53.200;5.814;2023-03-01T07:45:11;26.05;;;19.00;;
59504;SDS011;45321;53.200;5.814;2023-03-01T07:47:38;30.83;;;20.10;;
59504;SDS011;45321;53.200;5.814;2023-03-01T07:50:04;22.08;;;15.63;;
59504;SDS011;45321;53.200;5.814;2023-03-01T07:52:30;19.30;;;15.05;;
59504;SDS011;45321;53.200;5.814;2023-03-01T07:54:56;17.15;;;12.90;;
59504;SDS011;45321;53.200;5.814;2023-03-01T07:57:22;15.57;;;12.00;;
59504;SDS011;45321;53.200;5.814;2023-03-01T07:59:48;12.68;;;11.13;;
59504;SDS011;45321;53.200;5.814;2023-03-01T08:02:14;12.20;;;10.55;;
59504;SDS011;45321;53.200;5.814;2023-03-01T08:04:41;13.32;;;10.93;;
59504;SDS011;45321;53.200;5.814;2023-03-01T08:07:07;15.02;;;11.63;;
59504;SDS011;45321;53.200;5.814;2023-03-01T08:09:36;16.83;;;14.07;;
59504;SDS011;45321;53.200;5.814;2023-03-01T08:12:03;17.50;;;13.63;;
59504;SDS011;45321;53.200;5.814;2023-03-01T08:14:30;20.00;;;15.23;;
59504;SDS011;45321;53.200;5.814;2023-03-01T08:16:56;17.50;;;14.07;;
59504;SDS011;45321;53.200;5.814;2023-03-01T08:19:22;21.13;;;15.98;;
59504;SDS011;45321;53.200;5.814;2023-03-01T08:21:48;22.38;;;15.85;;
59504;SDS011;45321;53.200;5.814;2023-03-01T08:24:14;19.85;;;15.38;;
59504;SDS011;45321;53.200;5.814;2023-03-01T08:26:39;18.92;;;14.20;;
59504;SDS011;45321;53.200;5.814;2023-03-01T08:29:05;19.52;;;15.90;;
59504;SDS011;45321;53.200;5.814;2023-03-01T08:31:33;22.95;;;16.58;;
59504;SDS011;45321;53.200;5.814;2023-03-01T08:34:01;24.77;;;18.60;;
59504;SDS011;45321;53.200;5.814;2023-03-01T08:36:31;28.17;;;22.48;;
59504;SDS011;45321;53.200;5.814;2023-03-01T08:39:01;30.77;;;23.05;;
59504;SDS011;45321;53.200;5.814;2023-03-01T08:41:27;33.10;;;23.63;;
59504;SDS011;45321;53.200;5.814;2023-03-01T08:43:52;29.15;;;22.63;;
59504;SDS011;45321;53.200;5.814;2023-03-01T08:46:23;29.95;;;22.52;;
59504;SDS011;45321;53.200;5.814;2023-03-01T08:48:53;32.60;;;22.50;;
59504;SDS011;45321;53.200;5.814;2023-03-01T08:51:19;32.15;;;22.08;;
59504;SDS011;45321;53.200;5.814;2023-03-01T08:53:46;27.83;;;20.38;;
59504;SDS011;45321;53.200;5.814;2023-03-01T08:56:12;25.20;;;18.80;;
59504;SDS011;45321;53.200;5.814;2023-03-01T08:58:38;24.45;;;18.63;;
59504;SDS011;45321;53.200;5.814;2023-03-01T09:01:11;22.88;;;18.30;;
59504;SDS011;45321;53.200;5.814;2023-03-01T09:03:38;23.40;;;18.95;;
59504;SDS011;45321;53.200;5.814;2023-03-01T09:06:04;27.52;;;18.70;;
59504;SDS011;45321;53.200;5.814;2023-03-01T09:08:36;26.85;;;18.70;;
59504;SDS011;45321;53.200;5.814;2023-03-01T09:11:03;23.98;;;18.42;;
59504;SDS011;45321;53.200;5.814;2023-03-01T09:13:31;25.85;;;19.63;;
59504;SDS011;45321;53.200;5.814;2023-03-01T09:15:57;24.15;;;18.58;;
59504;SDS011;45321;53.200;5.814;2023-03-01T09:18:23;25.10;;;20.10;;
59504;SDS011;45321;53.200;5.814;2023-03-01T09:20:49;22.33;;;17.63;;
59504;SDS011;45321;53.200;5.814;2023-03-01T09:23:15;25.58;;;19.52;;
59504;SDS011;45321;53.200;5.814;2023-03-01T09:25:40;30.02;;;20.48;;
59504;SDS011;45321;53.200;5.814;2023-03-01T09:28:06;29.42;;;20.92;;
59504;SDS011;45321;53.200;5.814;2023-03-01T09:30:32;25.60;;;20.30;;
59504;SDS011;45321;53.200;5.814;2023-03-01T09:32:58;27.20;;;19.80;;
59504;SDS011;45321;53.200;5.814;2023-03-01T09:35:24;27.88;;;20.60;;
59504;SDS011;45321;53.200;5.814;2023-03-01T09:37:49;25.35;;;19.35;;
59504;SDS011;45321;53.200;5.814;2023-03-01T09:40:17;34.50;;;24.73;;
59504;SDS011;45321;53.200;5.814;2023-03-01T09:42:48;33.83;;;23.02;;
59504;SDS011;45321;53.200;5.814;2023-03-01T09:45:32;28.70;;;21.77;;
59504;SDS011;45321;53.200;5.814;2023-03-01T09:48:00;30.27;;;22.90;;
59504;SDS011;45321;53.200;5.814;2023-03-01T09:50:32;24.52;;;17.80;;
59504;SDS011;45321;53.200;5.814;2023-03-01T09:53:04;18.77;;;15.52;;
59504;SDS011;45321;53.200;5.814;2023-03-01T10:00:59;20.50;;;14.80;;
59504;SDS011;45321;53.200;5.814;2023-03-01T10:03:36;20.02;;;15.55;;
59504;SDS011;45321;53.200;5.814;2023-03-01T10:06:10;17.35;;;13.75;;
59504;SDS011;45321;53.200;5.814;2023-03-01T10:08:56;17.50;;;13.52;;
59504;SDS011;45321;53.200;5.814;2023-03-01T10:11:28;16.20;;;12.25;;
59504;SDS011;45321;53.200;5.814;2023-03-01T10:14:12;14.35;;;12.85;;
59504;SDS011;45321;53.200;5.814;2023-03-01T10:19:29;21.57;;;14.80;;
59504;SDS011;45321;53.200;5.814;2023-03-01T10:21:57;19.63;;;15.05;;
59504;SDS011;45321;53.200;5.814;2023-03-01T10:24:49;20.33;;;15.20;;
59504;SDS011;45321;53.200;5.814;2023-03-01T10:32:51;23.58;;;15.23;;
59504;SDS011;45321;53.200;5.814;2023-03-01T10:35:20;18.98;;;15.30;;
59504;SDS011;45321;53.200;5.814;2023-03-01T10:38:10;22.25;;;15.77;;
59504;SDS011;45321;53.200;5.814;2023-03-01T10:40:52;18.30;;;15.25;;
59504;SDS011;45321;53.200;5.814;2023-03-01T10:43:27;19.02;;;15.13;;
59504;SDS011;45321;53.200;5.814;2023-03-01T10:46:16;18.25;;;15.63;;
59504;SDS011;45321;53.200;5.814;2023-03-01T10:51:40;18.92;;;15.65;;
59504;SDS011;45321;53.200;5.814;2023-03-01T10:54:15;17.25;;;15.38;;
59504;SDS011;45321;53.200;5.814;2023-03-01T10:56:48;17.00;;;13.82;;
59504;SDS011;45321;53.200;5.814;2023-03-01T10:59:26;16.40;;;14.20;;
59504;SDS011;45321;53.200;5.814;2023-03-01T11:04:57;15.57;;;13.45;;
59504;SDS011;45321;53.200;5.814;2023-03-01T11:07:24;13.50;;;11.43;;
59504;SDS011;45321;53.200;5.814;2023-03-01T11:09:50;13.35;;;11.95;;
59504;SDS011;45321;53.200;5.814;2023-03-01T11:12:16;16.80;;;12.68;;
59504;SDS011;45321;53.200;5.814;2023-03-01T11:14:53;13.00;;;10.93;;
59504;SDS011;45321;53.200;5.814;2023-03-01T11:20:38;13.65;;;11.52;;
59504;SDS011;45321;53.200;5.814;2023-03-01T11:22:53;12.25;;;10.80;;
59504;SDS011;45321;53.200;5.814;2023-03-01T11:25:23;12.38;;;11.18;;
59504;SDS011;45321;53.200;5.814;2023-03-01T11:28:04;12.80;;;11.45;;
59504;SDS011;45321;53.200;5.814;2023-03-01T11:30:36;11.68;;;10.48;;
59504;SDS011;45321;53.200;5.814;2023-03-01T11:33:30;11.23;;;10.07;;
59504;SDS011;45321;53.200;5.814;2023-03-01T11:38:43;10.93;;;9.57;;
59504;SDS011;45321;53.200;5.814;2023-03-01T11:41:23;10.18;;;9.10;;
59504;SDS011;45321;53.200;5.814;2023-03-01T11:43:55;12.98;;;9.20;;
59504;SDS011;45321;53.200;5.814;2023-03-01T11:57:35;10.65;;;9.52;;
59504;SDS011;45321;53.200;5.814;2023-03-01T12:06:35;13.05;;;10.95;;
59504;SDS011;45321;53.200;5.814;2023-03-01T12:17:12;12.20;;;10.90;;
59504;SDS011;45321;53.200;5.814;2023-03-01T12:25:16;14.45;;;12.15;;
59504;SDS011;45321;53.200;5.814;2023-03-01T12:30:40;13.48;;;11.60;;
59504;SDS011;45321;53.200;5.814;2023-03-01T12:50:23;13.57;;;12.18;;
59504;SDS011;45321;53.200;5.814;2023-03-01T12:52:55;12.93;;;11.63;;
59504;SDS011;45321;53.200;5.814;2023-03-01T12:55:41;13.38;;;11.93;;
59504;SDS011;45321;53.200;5.814;2023-03-01T12:58:23;13.40;;;12.00;;
59504;SDS011;45321;53.200;5.814;2023-03-01T13:04:05;12.90;;;11.50;;
59504;SDS011;45321;53.200;5.814;2023-03-01T13:09:30;12.63;;;11.35;;
59504;SDS011;45321;53.200;5.814;2023-03-01T13:12:00;12.25;;;11.05;;
59504;SDS011;45321;53.200;5.814;2023-03-01T13:16:54;12.95;;;10.77;;
59504;SDS011;45321;53.200;5.814;2023-03-01T13:19:22;11.80;;;10.60;;
59504;SDS011;45321;53.200;5.814;2023-03-01T13:21:54;12.23;;;10.93;;
59504;SDS011;45321;53.200;5.814;2023-03-01T13:24:24;12.05;;;10.88;;
59504;SDS011;45321;53.200;5.814;2023-03-01T13:34:49;12.00;;;10.80;;
59504;SDS011;45321;53.200;5.814;2023-03-01T13:37:25;10.77;;;9.68;;
59504;SDS011;45321;53.200;5.814;2023-03-01T13:39:54;11.18;;;10.07;;
59504;SDS011;45321;53.200;5.814;2023-03-01T13:42:30;11.13;;;10.13;;
59504;SDS011;45321;53.200;5.814;2023-03-01T13:44:57;11.38;;;10.27;;
59504;SDS011;45321;53.200;5.814;2023-03-01T13:47:23;11.68;;;10.02;;
59504;SDS011;45321;53.200;5.814;2023-03-01T13:52:36;12.13;;;10.85;;
59504;SDS011;45321;53.200;5.814;2023-03-01T13:55:40;11.52;;;9.68;;
59504;SDS011;45321;53.200;5.814;2023-03-01T13:58:23;12.02;;;10.85;;
59504;SDS011;45321;53.200;5.814;2023-03-01T14:00:57;12.38;;;11.15;;
59504;SDS011;45321;53.200;5.814;2023-03-01T14:03:25;11.68;;;10.60;;
59504;SDS011;45321;53.200;5.814;2023-03-01T14:05:59;12.05;;;10.90;;
59504;SDS011;45321;53.200;5.814;2023-03-01T14:08:28;15.65;;;13.60;;
59504;SDS011;45321;53.200;5.814;2023-03-01T14:11:13;13.05;;;11.85;;
59504;SDS011;45321;53.200;5.814;2023-03-01T14:16:26;15.52;;;14.00;;
59504;SDS011;45321;53.200;5.814;2023-03-01T14:22:17;11.77;;;10.57;;
59504;SDS011;45321;53.200;5.814;2023-03-01T14:24:50;12.27;;;10.95;;
59504;SDS011;45321;53.200;5.814;2023-03-01T14:27:19;10.60;;;9.52;;
59504;SDS011;45321;53.200;5.814;2023-03-01T14:29:59;13.20;;;11.13;;
59504;SDS011;45321;53.200;5.814;2023-03-01T14:32:29;11.40;;;10.25;;
59504;SDS011;45321;53.200;5.814;2023-03-01T14:34:58;15.30;;;13.60;;
59504;SDS011;45321;53.200;5.814;2023-03-01T14:39:55;12.90;;;11.30;;
59504;SDS011;45321;53.200;5.814;2023-03-01T14:42:22;15.70;;;14.10;;
59504;SDS011;45321;53.200;5.814;2023-03-01T14:44:51;15.80;;;14.15;;
59504;SDS011;45321;53.200;5.814;2023-03-01T14:47:25;19.80;;;13.65;;
59504;SDS011;45321;53.200;5.814;2023-03-01T14:49:54;10.30;;;9.30;;
59504;SDS011;45321;53.200;5.814;2023-03-01T14:52:31;12.35;;;11.10;;
59504;SDS011;45321;53.200;5.814;2023-03-01T14:55:15;9.57;;;8.70;;
59504;SDS011;45321;53.200;5.814;2023-03-01T14:57:44;15.52;;;14.00;;
59504;SDS011;45321;53.200;5.814;2023-03-01T15:00:18;12.95;;;11.65;;
59504;SDS011;45321;53.200;5.814;2023-03-01T15:02:46;12.50;;;11.20;;
59504;SDS011;45321;53.200;5.814;2023-03-01T15:05:13;14.95;;;13.35;;
59504;SDS011;45321;53.200;5.814;2023-03-01T15:07:43;12.70;;;11.50;;
59504;SDS011;45321;53.200;5.814;2023-03-01T15:10:24;9.57;;;8.57;;
59504;SDS011;45321;53.200;5.814;2023-03-01T15:12:52;10.38;;;9.27;;
59504;SDS011;45321;53.200;5.814;2023-03-01T15:17:58;9.15;;;8.25;;
59504;SDS011;45321;53.200;5.814;2023-03-01T15:20:30;10.13;;;8.93;;
59504;SDS011;45321;53.200;5.814;2023-03-01T15:23:00;15.60;;;14.00;;
59504;SDS011;45321;53.200;5.814;2023-03-01T15:25:27;10.50;;;9.40;;
59504;SDS011;45321;53.200;5.814;2023-03-01T15:27:55;12.73;;;11.48;;
59504;SDS011;45321;53.200;5.814;2023-03-01T15:36:00;7.95;;;7.15;;
59504;SDS011;45321;53.200;5.814;2023-03-01T15:38:53;8.88;;;7.75;;
59504;SDS011;45321;53.200;5.814;2023-03-01T15:41:25;9.38;;;8.13;;
59504;SDS011;45321;53.200;5.814;2023-03-01T15:43:56;12.23;;;10.93;;
59504;SDS011;45321;53.200;5.814;2023-03-01T15:46:33;10.00;;;9.00;;
59504;SDS011;45321;53.200;5.814;2023-03-01T15:49:18;11.23;;;10.07;;
59504;SDS011;45321;53.200;5.814;2023-03-01T15:52:05;10.32;;;8.63;;
59504;SDS011;45321;53.200;5.814;2023-03-01T15:54:38;10.90;;;9.90;;
59504;SDS011;45321;53.200;5.814;2023-03-01T15:57:08;11.65;;;10.45;;
59504;SDS011;45321;53.200;5.814;2023-03-01T15:59:40;11.32;;;10.13;;
59504;SDS011;45321;53.200;5.814;2023-03-01T16:02:10;12.75;;;10.23;;
59504;SDS011;45321;53.200;5.814;2023-03-01T16:04:37;10.60;;;9.50;;
59504;SDS011;45321;53.200;5.814;2023-03-01T16:07:04;10.05;;;9.15;;
59504;SDS011;45321;53.200;5.814;2023-03-01T16:09:30;11.02;;;9.15;;
59504;SDS011;45321;53.200;5.814;2023-03-01T16:11:57;11.35;;;10.23;;
59504;SDS011;45321;53.200;5.814;2023-03-01T16:14:23;11.57;;;10.35;;
59504;SDS011;45321;53.200;5.814;2023-03-01T16:16:49;12.93;;;10.77;;
59504;SDS011;45321;53.200;5.814;2023-03-01T16:19:14;12.20;;;10.90;;
59504;SDS011;45321;53.200;5.814;2023-03-01T16:21:40;15.38;;;13.88;;
59504;SDS011;45321;53.200;5.814;2023-03-01T16:24:08;18.15;;;16.25;;
59504;SDS011;45321;53.200;5.814;2023-03-01T16:26:34;16.67;;;13.25;;
59504;SDS011;45321;53.200;5.814;2023-03-01T16:29:01;13.77;;;12.32;;
59504;SDS011;45321;53.200;5.814;2023-03-01T16:31:26;15.23;;;13.07;;
59504;SDS011;45321;53.200;5.814;2023-03-01T16:33:54;18.50;;;13.15;;
59504;SDS011;45321;53.200;5.814;2023-03-01T16:36:21;15.63;;;13.30;;
59504;SDS011;45321;53.200;5.814;2023-03-01T16:38:54;16.15;;;13.90;;